Time;durP1;ratioP1;P1;durP2;ratioP2;P2;SDS_P1;SDS_P2;PMS_P1;PMS_P2;Temp;Humidity;BMP_temperature;BMP_pressure;BME280_temperature;BME280_humidity;BME280_pressure;Samples;Min_cycle;Max_cycle;Signal;HPM_P1;HPM_P2
2022/04/18 00:00:11;;;;;;;10.77;8.23;;;14.40;46.40;;;;;;5105076;28;20413;-68
2022/04/18 00:02:37;;;;;;;11.35;8.02;;;14.30;46.20;;;;;;5088852;28;20424;-67
2022/04/18 00:05:03;;;;;;;13.03;8.60;;;14.30;46.40;;;;;;5088668;28;20774;-70
2022/04/18 00:07:28;;;;;;;12.40;8.50;;;14.30;46.60;;;;;;5069101;28;20421;-69
2022/04/18 00:09:54;;;;;;;13.85;8.80;;;14.20;46.60;;;;;;5088121;28;20425;-67
2022/04/18 00:12:20;;;;;;;11.55;7.95;;;14.20;46.60;;;;;;5086358;28;20440;-70
2022/04/18 00:14:46;;;;;;;12.02;9.05;;;14.20;46.80;;;;;;5095162;28;20413;-68
2022/04/18 00:17:12;;;;;;;13.32;8.93;;;14.10;46.90;;;;;;5069718;28;20414;-69
2022/04/18 00:19:38;;;;;;;13.35;8.57;;;14.10;47.00;;;;;;5089507;28;20894;-68
2022/04/18 00:22:05;;;;;;;12.80;8.80;;;14.10;47.20;;;;;;5067412;28;20509;-68
2022/04/18 00:24:31;;;;;;;13.80;9.00;;;14.10;47.30;;;;;;5087444;28;20407;-66
2022/04/18 00:26:56;;;;;;;14.90;9.15;;;14.00;47.20;;;;;;5083579;28;20739;-70
2022/04/18 00:29:22;;;;;;;15.00;9.20;;;14.00;47.40;;;;;;5075808;28;20444;-68
2022/04/18 00:31:48;;;;;;;13.48;9.48;;;14.00;47.60;;;;;;5078913;28;20398;-69
2022/04/18 00:34:14;;;;;;;14.43;9.30;;;13.90;47.60;;;;;;5068539;28;20417;-69
2022/04/18 00:36:41;;;;;;;13.80;9.40;;;13.90;47.70;;;;;;5102789;28;20917;-70
2022/04/18 00:39:06;;;;;;;15.95;9.30;;;13.90;47.90;;;;;;5087754;28;20492;-72
2022/04/18 00:41:32;;;;;;;13.68;9.20;;;13.90;47.90;;;;;;5090504;28;20432;-70
2022/04/18 00:43:58;;;;;;;14.73;9.43;;;13.80;47.90;;;;;;5070225;28;20413;-68
2022/04/18 00:46:24;;;;;;;14.50;9.40;;;13.80;48.10;;;;;;5093207;28;20414;-69
2022/04/18 00:48:50;;;;;;;15.90;9.73;;;13.80;48.30;;;;;;5069864;28;20835;-70
2022/04/18 00:51:23;;;;;;;14.40;9.13;;;13.70;48.40;;;;;;5070558;28;20497;-68
2022/04/18 00:53:53;;;;;;;14.32;9.75;;;13.70;48.60;;;;;;5086802;28;20400;-67
2022/04/18 00:56:20;;;;;;;13.05;9.40;;;13.70;48.70;;;;;;5091541;28;20443;-70
2022/04/18 00:58:47;;;;;;;14.77;9.85;;;13.70;48.70;;;;;;5088222;28;20490;-68
2022/04/18 01:01:14;;;;;;;12.88;9.70;;;13.70;49.00;;;;;;5086627;28;20425;-70
2022/04/18 01:03:40;;;;;;;14.75;10.15;;;13.60;49.10;;;;;;5070028;28;21142;-70
2022/04/18 01:06:06;;;;;;;16.15;9.85;;;13.50;49.30;;;;;;5068662;28;20406;-71
2022/04/18 01:08:33;;;;;;;14.32;10.65;;;13.50;49.60;;;;;;5068452;28;20429;-70
2022/04/18 01:11:00;;;;;;;14.05;9.70;;;13.50;49.70;;;;;;5086042;28;20402;-68
2022/04/18 01:13:47;;;;;;;16.85;11.13;;;13.40;49.90;;;;;;5101527;28;20410;-68
2022/04/18 01:16:32;;;;;;;14.52;9.75;;;13.40;50.10;;;;;;5087161;28;20408;-68
2022/04/18 01:19:21;;;;;;;13.70;9.70;;;13.30;50.30;;;;;;5069054;28;20825;-67
2022/04/18 01:22:00;;;;;;;17.92;10.27;;;13.30;50.40;;;;;;5064138;28;20413;-69
2022/04/18 01:30:17;;;;;;;15.02;10.60;;;13.20;50.80;;;;;;5069039;28;20805;-71
2022/04/18 01:32:44;;;;;;;16.15;10.52;;;13.20;51.00;;;;;;5068823;28;20446;-71
2022/04/18 01:35:10;;;;;;;15.15;10.32;;;13.20;51.10;;;;;;5071363;28;20440;-69
2022/04/18 01:37:37;;;;;;;13.98;10.48;;;13.10;51.20;;;;;;5068101;28;20402;-69
2022/04/18 01:40:05;;;;;;;16.33;10.60;;;13.10;51.40;;;;;;5068479;28;20420;-69
2022/04/18 01:42:31;;;;;;;13.88;10.30;;;13.10;51.50;;;;;;5067668;28;20770;-71
2022/04/18 01:44:57;;;;;;;15.93;11.07;;;13.10;51.50;;;;;;5069556;28;20402;-67
2022/04/18 01:47:23;;;;;;;17.80;11.00;;;13.00;51.70;;;;;;5068162;28;20435;-71
2022/04/18 01:49:49;;;;;;;15.27;10.70;;;13.00;51.90;;;;;;5076326;28;20823;-69
2022/04/18 01:52:15;;;;;;;16.83;10.82;;;13.00;52.10;;;;;;5083831;28;20412;-69
2022/04/18 01:54:42;;;;;;;15.77;10.70;;;12.90;52.20;;;;;;5069515;28;20406;-68
2022/04/18 01:57:10;;;;;;;15.45;11.27;;;12.90;52.40;;;;;;5066959;28;20414;-69
2022/04/18 01:59:36;;;;;;;16.10;11.45;;;12.90;52.60;;;;;;5069405;28;20963;-72
2022/04/18 02:02:02;;;;;;;15.03;11.00;;;12.90;52.60;;;;;;5065728;28;20484;-67
2022/04/18 02:04:29;;;;;;;15.45;10.80;;;12.80;52.70;;;;;;5067986;28;20406;-69
2022/04/18 02:06:55;;;;;;;17.17;11.27;;;12.80;52.90;;;;;;5069039;28;20559;-70
2022/04/18 02:09:20;;;;;;;17.42;10.27;;;12.70;53.00;;;;;;5067096;28;20568;-68
2022/04/18 02:11:46;;;;;;;17.05;11.02;;;12.70;53.30;;;;;;5066195;28;21033;-69
2022/04/18 02:14:13;;;;;;;16.67;10.70;;;12.70;53.40;;;;;;5067196;28;20401;-69
2022/04/18 02:16:40;;;;;;;15.98;11.10;;;12.60;53.60;;;;;;5067895;28;20413;-67
2022/04/18 02:19:07;;;;;;;16.50;11.20;;;12.60;53.90;;;;;;5068974;28;20398;-68
2022/04/18 02:21:33;;;;;;;14.13;10.32;;;12.60;54.00;;;;;;5066453;28;20432;-68
2022/04/18 02:23:59;;;;;;;15.93;10.68;;;12.50;53.90;;;;;;5079309;28;20418;-67
2022/04/18 02:26:24;;;;;;;14.55;9.90;;;12.50;53.90;;;;;;5067597;28;20932;-68
2022/04/18 02:29:02;;;;;;;14.75;10.35;;;12.50;53.90;;;;;;5102281;28;20390;-67
2022/04/18 02:31:27;;;;;;;15.20;10.57;;;12.50;53.80;;;;;;5048716;28;20417;-67
2022/04/18 02:33:53;;;;;;;15.50;10.23;;;12.50;53.70;;;;;;5086590;28;20500;-69
2022/04/18 02:36:21;;;;;;;14.13;10.20;;;12.50;53.80;;;;;;5067903;28;20410;-67
2022/04/18 02:38:47;;;;;;;14.43;10.30;;;12.50;53.70;;;;;;5073264;28;20997;-67
2022/04/18 02:41:13;;;;;;;13.93;10.43;;;12.50;53.80;;;;;;5072079;28;20401;-70
2022/04/18 02:43:39;;;;;;;14.45;10.07;;;12.50;53.80;;;;;;5068062;28;20444;-68
2022/04/18 02:46:09;;;;;;;14.63;10.00;;;12.50;53.60;;;;;;5072908;28;20758;-68
2022/04/18 02:48:43;;;;;;;14.10;9.95;;;12.50;53.70;;;;;;5065125;28;20414;-68
2022/04/18 02:51:11;;;;;;;15.50;10.70;;;12.40;53.90;;;;;;5102655;28;20393;-69
2022/04/18 02:53:37;;;;;;;16.67;9.70;;;12.50;54.00;;;;;;5076905;28;20496;-67
2022/04/18 02:56:06;;;;;;;15.40;10.02;;;12.50;54.20;;;;;;5084782;28;20906;-69
2022/04/18 02:58:35;;;;;;;15.73;10.37;;;12.40;54.10;;;;;;5070055;28;20402;-69
2022/04/18 03:01:01;;;;;;;16.50;10.10;;;12.40;54.00;;;;;;5075690;28;20491;-70
2022/04/18 03:03:28;;;;;;;12.48;9.55;;;12.40;54.10;;;;;;5076885;28;20750;-68
2022/04/18 03:05:54;;;;;;;13.73;9.02;;;12.30;54.00;;;;;;5104644;28;20409;-69
2022/04/18 03:08:21;;;;;;;15.18;9.75;;;12.30;53.90;;;;;;5065933;28;20488;-71
2022/04/18 03:11:06;;;;;;;14.77;9.68;;;12.30;53.90;;;;;;5085866;28;20413;-69
2022/04/18 03:13:44;;;;;;;16.48;9.52;;;12.30;54.40;;;;;;5066938;28;20458;-69
2022/04/18 03:16:15;;;;;;;13.82;9.32;;;12.30;54.30;;;;;;5077761;28;20417;-70
2022/04/18 03:18:41;;;;;;;13.10;9.20;;;12.20;54.40;;;;;;5069054;28;20397;-70
2022/04/18 03:21:07;;;;;;;12.63;9.03;;;12.20;54.50;;;;;;5069203;28;20409;-68
2022/04/18 03:23:35;;;;;;;12.60;9.23;;;12.20;54.60;;;;;;5065132;28;20423;-70
2022/04/18 03:26:10;;;;;;;14.13;9.43;;;12.20;54.70;;;;;;5091290;28;20417;-69
2022/04/18 03:28:52;;;;;;;14.45;9.38;;;12.20;55.00;;;;;;5074807;28;20476;-68
2022/04/18 03:31:18;;;;;;;13.18;9.25;;;12.10;55.20;;;;;;5072431;28;21087;-69
2022/04/18 03:33:44;;;;;;;13.05;9.23;;;12.10;55.50;;;;;;5053534;28;20488;-69
2022/04/18 03:41:42;;;;;;;13.40;9.30;;;12.10;55.50;;;;;;5067817;28;20449;-69
2022/04/18 03:44:09;;;;;;;11.60;9.10;;;12.00;55.50;;;;;;5071784;28;20914;-69
2022/04/18 03:46:35;;;;;;;13.93;9.15;;;12.00;55.70;;;;;;5088796;28;20417;-69
2022/04/18 03:49:01;;;;;;;11.88;8.90;;;12.00;55.80;;;;;;5071318;28;20496;-70
2022/04/18 03:51:26;;;;;;;12.90;8.83;;;12.00;56.00;;;;;;5086110;28;20962;-71
2022/04/18 03:53:53;;;;;;;12.85;8.90;;;11.90;56.10;;;;;;5073553;28;20451;-70
2022/04/18 03:56:21;;;;;;;11.75;8.25;;;12.00;56.20;;;;;;5068824;28;20430;-71
2022/04/18 03:59:05;;;;;;;10.77;8.40;;;11.90;56.20;;;;;;5088708;28;20475;-70
2022/04/18 04:01:34;;;;;;;12.90;8.52;;;11.90;56.40;;;;;;5084266;28;20770;-69
2022/04/18 04:04:00;;;;;;;12.40;8.50;;;11.80;56.50;;;;;;5069538;28;20459;-69
2022/04/18 04:06:26;;;;;;;12.88;8.57;;;11.80;56.70;;;;;;5089150;28;20850;-70
2022/04/18 04:08:52;;;;;;;15.23;8.57;;;11.80;56.90;;;;;;5070576;28;20493;-70
2022/04/18 04:11:23;;;;;;;11.45;8.43;;;11.80;56.90;;;;;;5071103;28;20422;-69
2022/04/18 04:13:49;;;;;;;13.10;8.20;;;11.80;57.00;;;;;;5068414;28;20464;-68
2022/04/18 04:16:18;;;;;;;12.20;8.27;;;11.70;56.80;;;;;;5083286;28;20902;-68
2022/04/18 04:18:44;;;;;;;11.70;8.20;;;11.70;56.90;;;;;;5071010;28;20403;-68
2022/04/18 04:21:12;;;;;;;12.63;8.40;;;11.70;57.20;;;;;;5071264;28;20767;-69
2022/04/18 04:23:39;;;;;;;11.98;8.43;;;11.70;57.20;;;;;;5068545;28;20906;-69
2022/04/18 04:26:18;;;;;;;12.48;7.88;;;11.70;57.60;;;;;;5069988;28;20961;-69
2022/04/18 04:28:48;;;;;;;11.95;8.15;;;11.70;57.60;;;;;;5070501;28;20476;-70
2022/04/18 04:31:19;;;;;;;10.13;7.97;;;11.70;57.60;;;;;;5072551;28;20382;-70
2022/04/18 04:33:45;;;;;;;11.80;8.20;;;11.70;57.60;;;;;;5068762;28;20403;-70
2022/04/18 04:36:15;;;;;;;13.38;8.18;;;11.60;57.70;;;;;;5079835;28;20405;-70
2022/04/18 04:38:42;;;;;;;12.93;8.05;;;11.70;57.80;;;;;;5066931;28;20920;-70
2022/04/18 04:41:16;;;;;;;11.68;7.40;;;11.60;57.60;;;;;;5068044;28;20386;-68
2022/04/18 04:43:55;;;;;;;12.05;7.65;;;11.70;57.80;;;;;;5054974;28;20416;-69
2022/04/18 04:46:30;;;;;;;9.65;7.25;;;11.70;57.70;;;;;;5069178;28;20789;-70
2022/04/18 04:49:05;;;;;;;9.77;7.25;;;11.70;57.40;;;;;;5066709;28;20412;-69
2022/04/18 04:51:31;;;;;;;8.90;7.07;;;11.70;57.20;;;;;;5088762;28;20430;-67
2022/04/18 04:53:57;;;;;;;10.55;7.03;;;11.70;57.40;;;;;;5069853;28;20497;-72
2022/04/18 04:56:30;;;;;;;9.93;6.60;;;11.70;57.20;;;;;;5070389;28;20416;-70
2022/04/18 04:58:57;;;;;;;11.55;6.93;;;11.70;57.80;;;;;;5068909;28;20421;-71
2022/04/18 05:01:25;;;;;;;10.90;6.78;;;11.70;57.00;;;;;;5068856;28;20508;-71
2022/04/18 05:03:59;;;;;;;10.75;6.90;;;11.70;57.00;;;;;;5066599;28;20743;-69
2022/04/18 05:06:25;;;;;;;9.57;6.40;;;11.70;57.00;;;;;;5072668;28;20424;-70
2022/04/18 05:08:52;;;;;;;11.95;6.55;;;11.80;57.20;;;;;;5065021;28;21329;-68
2022/04/18 05:11:18;;;;;;;10.98;6.70;;;11.80;56.90;;;;;;5067244;28;20449;-69
2022/04/18 05:13:46;;;;;;;9.98;7.00;;;11.80;57.60;;;;;;5080524;28;20455;-70
2022/04/18 05:16:14;;;;;;;9.70;6.78;;;11.80;57.20;;;;;;5068126;28;20918;-71
2022/04/18 05:19:09;;;;;;;9.65;6.38;;;11.80;56.80;;;;;;5070498;28;20478;-74
2022/04/18 05:21:35;;;;;;;8.73;6.25;;;11.80;57.40;;;;;;5067718;28;20488;-69
2022/04/18 05:24:09;;;;;;;9.48;6.45;;;11.90;57.20;;;;;;5070781;28;20797;-69
2022/04/18 05:26:35;;;;;;;11.15;6.20;;;11.80;56.60;;;;;;5078265;28;20417;-67
2022/04/18 05:29:01;;;;;;;8.70;6.45;;;11.80;56.70;;;;;;5067882;28;20413;-69
2022/04/18 05:31:27;;;;;;;10.45;6.30;;;11.80;57.10;;;;;;5068651;28;20986;-71
2022/04/18 05:33:53;;;;;;;9.43;6.40;;;11.90;56.90;;;;;;5068123;28;20434;-70
2022/04/18 05:36:21;;;;;;;9.45;6.28;;;11.80;56.70;;;;;;5087865;28;21092;-73
2022/04/18 05:38:47;;;;;;;7.82;6.00;;;11.90;56.80;;;;;;5069334;28;20797;-69
2022/04/18 05:41:21;;;;;;;8.02;5.90;;;11.90;56.40;;;;;;5052314;28;20417;-72
2022/04/18 05:43:49;;;;;;;8.20;5.80;;;12.00;56.40;;;;;;5072383;28;20406;-71
2022/04/18 05:46:18;;;;;;;7.78;5.80;;;12.00;56.50;;;;;;5058656;28;20443;-69
2022/04/18 05:48:43;;;;;;;9.67;5.60;;;12.10;56.40;;;;;;5085846;28;20435;-69
2022/04/18 05:51:10;;;;;;;9.15;6.07;;;12.10;55.90;;;;;;5065818;28;20452;-70
2022/04/18 05:53:36;;;;;;;11.23;5.80;;;12.20;55.80;;;;;;5080880;28;20416;-70
2022/04/18 05:56:05;;;;;;;9.30;5.95;;;12.20;56.30;;;;;;5072882;28;20464;-69
2022/04/18 05:58:51;;;;;;;8.32;5.30;;;12.30;55.70;;;;;;5070225;28;21210;-72
2022/04/18 06:01:35;;;;;;;9.48;5.57;;;12.30;55.40;;;;;;5068085;28;20409;-71
2022/04/18 06:04:18;;;;;;;7.32;5.18;;;12.40;56.00;;;;;;5108210;27;20400;-68
2022/04/18 06:06:52;;;;;;;9.27;5.20;;;12.40;56.10;;;;;;5070586;28;20428;-69
2022/04/18 06:09:18;;;;;;;6.28;4.90;;;12.50;55.00;;;;;;5069737;28;20411;-71
2022/04/18 06:11:44;;;;;;;7.85;5.40;;;12.50;55.50;;;;;;5085521;28;20428;-71
2022/04/18 06:14:18;;;;;;;8.18;5.03;;;12.50;54.90;;;;;;5101001;28;20517;-70
2022/04/18 06:16:46;;;;;;;8.75;4.93;;;12.60;54.40;;;;;;5068291;28;20929;-70
2022/04/18 06:19:15;;;;;;;8.25;5.38;;;12.60;54.50;;;;;;5085611;28;20719;-72
2022/04/18 06:21:41;;;;;;;7.35;4.93;;;12.70;55.10;;;;;;5073233;28;20397;-69
2022/04/18 06:24:08;;;;;;;6.82;4.70;;;12.70;54.60;;;;;;5067796;28;20489;-70
2022/04/18 06:26:41;;;;;;;7.75;5.03;;;12.80;54.40;;;;;;5072782;28;20497;-69
2022/04/18 06:29:07;;;;;;;8.80;5.60;;;12.80;54.90;;;;;;5065268;28;20547;-69
2022/04/18 06:31:36;;;;;;;6.55;4.85;;;12.90;55.90;;;;;;5066449;28;20911;-71
2022/04/18 06:34:04;;;;;;;7.68;4.80;;;12.90;54.50;;;;;;5071991;28;20864;-70
2022/04/18 06:36:32;;;;;;;8.07;4.70;;;12.90;54.30;;;;;;5068144;28;20415;-71
2022/04/18 06:39:17;;;;;;;8.65;5.00;;;12.90;54.60;;;;;;5064898;28;20504;-70
2022/04/18 06:41:44;;;;;;;6.57;4.90;;;13.00;55.40;;;;;;5051992;28;20417;-70
2022/04/18 06:44:09;;;;;;;9.65;5.40;;;13.00;55.30;;;;;;5064104;28;20521;-70
2022/04/18 06:47:04;;;;;;;7.23;5.00;;;13.00;55.90;;;;;;5087900;28;20412;-72
2022/04/18 06:49:50;;;;;;;7.28;5.28;;;13.10;55.50;;;;;;5086462;28;20434;-72
2022/04/18 06:52:42;;;;;;;8.07;5.40;;;13.10;55.10;;;;;;5086407;28;20417;-69
2022/04/18 06:55:26;;;;;;;7.85;5.40;;;13.10;55.10;;;;;;5083881;28;20965;-70
2022/04/18 06:57:52;;;;;;;8.45;5.55;;;13.20;56.30;;;;;;5075298;28;20396;-71
2022/04/18 07:00:18;;;;;;;9.55;5.30;;;13.20;55.10;;;;;;5070741;28;20447;-71
2022/04/18 07:02:45;;;;;;;7.88;5.43;;;13.20;54.90;;;;;;5084503;28;20467;-72
2022/04/18 07:05:11;;;;;;;10.20;5.57;;;13.30;55.20;;;;;;5067326;28;20820;-71
2022/04/18 07:07:37;;;;;;;9.68;5.20;;;13.30;55.20;;;;;;5069551;28;20413;-72
2022/04/18 07:10:04;;;;;;;7.97;5.30;;;13.30;54.40;;;;;;5099075;28;20393;-72
2022/04/18 07:12:30;;;;;;;11.88;6.80;;;13.40;55.20;;;;;;5069447;28;20820;-69
2022/04/18 07:14:59;;;;;;;7.72;5.70;;;13.40;54.60;;;;;;5069600;28;20414;-71
2022/04/18 07:17:25;;;;;;;8.80;5.20;;;13.50;54.10;;;;;;5073331;28;20902;-70
2022/04/18 07:19:52;;;;;;;9.13;5.10;;;13.50;54.00;;;;;;5071626;28;20394;-70
2022/04/18 07:22:23;;;;;;;7.40;5.07;;;13.60;53.80;;;;;;5072491;28;20425;-70
2022/04/18 07:24:56;;;;;;;8.07;5.30;;;13.70;53.90;;;;;;5054368;28;20410;-72
2022/04/18 07:27:23;;;;;;;8.38;5.18;;;13.80;55.00;;;;;;5069002;28;20391;-72
2022/04/18 07:29:56;;;;;;;7.30;4.85;;;13.90;53.50;;;;;;5061949;28;20420;-70
2022/04/18 07:32:22;;;;;;;8.45;5.00;;;14.00;53.40;;;;;;5068927;28;20483;-70
2022/04/18 07:34:50;;;;;;;6.88;4.68;;;14.00;53.30;;;;;;5066401;28;20449;-70
2022/04/18 07:37:25;;;;;;;6.93;4.75;;;14.10;53.10;;;;;;5068486;28;20461;-71
2022/04/18 07:39:51;;;;;;;5.83;4.43;;;14.20;52.30;;;;;;5067669;28;20904;-70
2022/04/18 07:42:20;;;;;;;8.88;4.50;;;14.30;52.20;;;;;;5066562;28;20403;-72
2022/04/18 07:44:46;;;;;;;5.95;4.10;;;14.40;51.40;;;;;;5067987;28;20411;-71
2022/04/18 07:47:12;;;;;;;5.60;4.15;;;14.50;52.40;;;;;;5067508;28;20407;-70
2022/04/18 07:49:38;;;;;;;8.07;4.18;;;14.60;51.80;;;;;;5070090;28;20412;-73
2022/04/18 07:52:05;;;;;;;6.80;4.20;;;14.70;50.70;;;;;;5055213;28;20926;-75
2022/04/18 07:54:35;;;;;;;5.97;4.13;;;14.80;50.50;;;;;;5075534;28;20815;-70
2022/04/18 07:57:01;;;;;;;7.95;4.50;;;14.90;50.10;;;;;;5078499;28;20906;-70
2022/04/18 07:59:37;;;;;;;7.35;4.35;;;15.00;49.60;;;;;;5075218;28;20406;-75
2022/04/18 08:02:08;;;;;;;7.17;4.43;;;15.20;50.30;;;;;;5066897;28;20423;-72
2022/04/18 08:04:53;;;;;;;7.93;4.55;;;15.30;49.50;;;;;;5073817;28;20467;-74
2022/04/18 08:07:26;;;;;;;5.80;4.18;;;15.40;49.30;;;;;;5076310;28;20417;-75
2022/04/18 08:09:53;;;;;;;7.33;4.17;;;15.50;47.80;;;;;;5073547;28;20400;-76
2022/04/18 08:12:18;;;;;;;6.55;4.28;;;15.70;46.50;;;;;;5066613;28;20811;-71
2022/04/18 08:15:13;;;;;;;6.38;4.65;;;15.80;46.80;;;;;;5068569;28;20419;-71
2022/04/18 08:17:38;;;;;;;7.00;4.30;;;16.00;46.20;;;;;;5068661;28;20400;-73
2022/04/18 08:20:05;;;;;;;7.32;4.40;;;16.10;46.50;;;;;;5059290;28;20427;-71
2022/04/18 08:22:31;;;;;;;7.65;4.82;;;16.30;46.40;;;;;;5078131;28;20402;-74
2022/04/18 08:25:15;;;;;;;6.18;4.43;;;16.40;47.00;;;;;;5084596;28;20413;-75
2022/04/18 08:28:07;;;;;;;6.30;4.35;;;16.70;46.60;;;;;;5091659;28;20819;-72
2022/04/18 08:30:35;;;;;;;;;;;17.20;45.50;;;;;;5072185;28;20475;-73
2022/04/18 08:33:18;;;;;;;5.80;4.05;;;17.90;43.90;;;;;;5068289;28;20445;-72
2022/04/18 08:35:44;;;;;;;;;;;19.00;42.80;;;;;;5072573;28;20412;-72
2022/04/18 08:38:09;;;;;;;;;;;20.10;40.50;;;;;;5090008;28;19995;-73
2022/04/18 08:41:09;;;;;;;;;;;21.00;37.50;;;;;;5076959;28;20357;-72
2022/04/18 08:43:35;;;;;;;;;;;21.80;35.40;;;;;;5069152;28;19912;-71
2022/04/18 08:46:05;;;;;;;;;;;22.30;34.50;;;;;;5069211;28;19981;-74
2022/04/18 08:54:01;;;;;;;;;;;24.60;30.30;;;;;;5070494;28;19915;-75
2022/04/18 08:56:27;;;;;;;;;;;25.30;29.50;;;;;;5096882;28;20318;-71
2022/04/18 08:58:52;;;;;;;;;;;26.20;28.90;;;;;;5087038;28;19931;-72
2022/04/18 09:01:18;;;;;;;;;;;26.80;28.40;;;;;;5103956;27;19916;-70
2022/04/18 09:04:05;;;;;;;;;;;27.20;27.40;;;;;;5070053;28;19977;-72
2022/04/18 09:06:38;;;;;;;;;;;27.70;26.30;;;;;;5073091;28;20018;-73
2022/04/18 09:09:35;;;;;;;;;;;28.10;24.90;;;;;;5072996;28;20334;-73
2022/04/18 09:12:19;;;;;;;;;;;28.10;24.50;;;;;;5074532;28;20438;-73
2022/04/18 09:14:51;;;;;;;;;;;28.30;24.10;;;;;;5114731;27;20263;-76
2022/04/18 09:17:28;;;;;;;;;;;29.00;24.20;;;;;;5069849;28;19912;-74
2022/04/18 09:20:15;;;;;;;;;;;29.50;24.20;;;;;;5090933;28;19907;-72
2022/04/18 09:22:44;;;;;;;;;;;30.10;24.20;;;;;;5074435;28;20268;-74
2022/04/18 09:25:14;;;;;;;;;;;30.30;23.40;;;;;;5070828;28;19942;-76
2022/04/18 09:27:40;;;;;;;;;;;30.60;22.60;;;;;;5086756;28;19951;-76
2022/04/18 09:30:15;;;;;;;;;;;29.10;24.40;;;;;;5074717;28;19916;-67
2022/04/18 09:32:55;;;;;;;;;;;28.10;26.00;;;;;;5082683;28;20367;-68
2022/04/18 09:35:27;;;;;;;;;;;27.50;27.60;;;;;;5105937;27;20024;-67
2022/04/18 09:38:02;;;;;;;;;;;27.70;28.30;;;;;;5071968;28;19912;-68
2022/04/18 09:41:04;;;;;;;;;;;27.90;28.00;;;;;;5029277;28;19959;-68
2022/04/18 09:43:38;;;;;;;;;;;28.00;27.70;;;;;;5065082;28;20413;-66
2022/04/18 09:46:05;;;;;;;;;;;30.70;23.90;;;;;;5107125;27;20372;-67
2022/04/18 09:48:33;;;;;;;;;;;32.20;22.30;;;;;;5063774;28;19923;-67
2022/04/18 09:50:59;;;;;;;;;;;32.90;21.50;;;;;;5074235;28;20007;-68
2022/04/18 09:53:30;;;;;;;;;;;33.20;21.10;;;;;;5080863;28;19908;-67
2022/04/18 09:55:56;;;;;;;;;;;33.30;20.70;;;;;;5090548;28;20331;-68
2022/04/18 09:58:22;;;;;;;;;;;33.50;20.70;;;;;;5073189;28;19989;-67
2022/04/18 10:00:52;;;;;;;;;;;34.00;20.70;;;;;;5072693;28;19977;-68
2022/04/18 10:03:18;;;;;;;;;;;34.30;20.50;;;;;;5084813;28;19908;-68
2022/04/18 10:05:44;;;;;;;;;;;34.80;20.10;;;;;;5082802;28;19912;-67
2022/04/18 10:08:11;;;;;;;;;;;35.10;20.10;;;;;;5070813;28;19942;-67
2022/04/18 10:10:40;;;;;;;;;;;35.10;19.80;;;;;;5101920;28;19957;-68
2022/04/18 10:13:06;;;;;;;;;;;34.90;19.70;;;;;;5095192;28;19922;-67
2022/04/18 10:15:33;;;;;;;;;;;34.70;19.70;;;;;;5094617;28;20007;-70
2022/04/18 10:18:01;;;;;;;;;;;34.60;20.40;;;;;;5086278;28;20238;-68
2022/04/18 10:20:35;;;;;;;;;;;34.40;19.80;;;;;;5076309;28;19922;-68
2022/04/18 10:23:20;;;;;;;;;;;34.10;20.10;;;;;;5089483;28;19954;-68
2022/04/18 10:26:04;;;;;;;;;;;33.90;20.30;;;;;;5095112;28;19930;-69
2022/04/18 10:28:40;;;;;;;;;;;33.70;20.80;;;;;;5072066;28;19912;-71
2022/04/18 10:31:10;;;;;;;;;;;33.60;20.90;;;;;;5086621;28;19919;-68
2022/04/18 10:33:37;;;;;;;;;;;33.70;21.20;;;;;;5094702;28;19911;-69
2022/04/18 10:36:03;;;;;;;;;;;34.00;20.80;;;;;;5092101;28;19922;-69
2022/04/18 10:38:33;;;;;;;;;;;34.30;20.90;;;;;;5091652;28;19908;-69
2022/04/18 10:41:17;;;;;;;;;;;34.60;20.50;;;;;;5096121;28;19919;-69
2022/04/18 10:43:55;;;;;;;;;;;35.30;20.60;;;;;;5101094;28;20356;-69
2022/04/18 10:46:20;;;;;;;;;;;36.30;20.20;;;;;;5094587;28;19919;-69
2022/04/18 10:48:56;;;;;;;;;;;37.40;19.50;;;;;;5094146;28;21403;-69
2022/04/18 10:51:29;;;;;;;;;;;38.20;19.00;;;;;;5090027;28;20003;-68
2022/04/18 10:54:04;;;;;;;;;;;38.70;18.50;;;;;;5085372;28;19912;-68
2022/04/18 10:56:44;;;;;;;;;;;39.00;18.00;;;;;;5091252;28;20003;-69
2022/04/18 10:59:11;;;;;;;;;;;39.10;17.90;;;;;;5095645;28;19931;-68
2022/04/18 11:01:37;;;;;;;;;;;39.20;17.80;;;;;;5102132;28;20041;-69
2022/04/18 11:04:07;;;;;;;;;;;39.30;17.80;;;;;;5088334;28;19912;-67
2022/04/18 11:06:39;;;;;;;;;;;39.40;17.80;;;;;;5070067;28;19978;-67
2022/04/18 11:09:10;;;;;;;;;;;39.40;17.20;;;;;;5071848;28;19916;-67
2022/04/18 11:11:36;;;;;;;;;;;39.30;17.60;;;;;;5088597;28;20280;-66
2022/04/18 11:14:21;;;;;;;;;;;39.50;17.90;;;;;;5083885;28;19917;-67
2022/04/18 11:16:48;;;;;;;;;;;39.80;17.90;;;;;;5088081;28;19915;-67
2022/04/18 11:19:14;;;;;;;;;;;39.80;16.50;;;;;;5083448;28;19959;-68
2022/04/18 11:21:59;;;;;;;;;;;39.50;17.00;;;;;;5087460;28;19955;-67
2022/04/18 11:24:44;;;;;;;;;;;39.20;17.40;;;;;;5086466;28;19919;-66
2022/04/18 11:27:09;;;;;;;;;;;39.30;17.20;;;;;;5101494;28;20364;-68
2022/04/18 11:29:36;;;;;;;;;;;39.30;16.10;;;;;;5091456;28;19937;-67
2022/04/18 11:32:02;;;;;;;;;;;39.40;15.60;;;;;;5097240;28;19911;-67
2022/04/18 11:34:28;;;;;;;;;;;39.50;16.50;;;;;;5088856;28;19915;-68
2022/04/18 11:36:55;;;;;;;;;;;39.50;15.90;;;;;;5096531;28;19915;-69
2022/04/18 11:39:20;;;;;;;;;;;39.60;15.50;;;;;;5091681;28;19951;-69
2022/04/18 11:41:46;;;;;;;;;;;39.50;16.20;;;;;;5086092;28;19951;-67
2022/04/18 11:44:17;;;;;;;;;;;39.30;15.10;;;;;;5083636;28;20361;-68
2022/04/18 11:46:42;;;;;;;;;;;39.10;15.80;;;;;;5075569;28;19919;-68
2022/04/18 11:49:08;;;;;;;;;;;38.80;14.80;;;;;;5087246;28;19912;-68
2022/04/18 11:51:41;;;;;;;;;;;38.70;15.30;;;;;;5073240;28;20280;-70
2022/04/18 11:54:06;;;;;;;;;;;38.80;15.80;;;;;;5092095;28;19943;-68
2022/04/18 11:56:32;;;;;;;;;;;39.10;15.80;;;;;;5091359;28;19943;-67
2022/04/18 11:59:07;;;;;;;;;;;39.10;16.30;;;;;;5082050;28;20018;-69
2022/04/18 12:07:01;;;;;;;;;;;38.90;16.60;;;;;;5089073;28;20365;-68
2022/04/18 12:09:26;;;;;;;;;;;38.80;15.80;;;;;;5088961;28;19912;-69
2022/04/18 12:11:52;;;;;;;;;;;38.20;16.30;;;;;;5074882;28;19920;-71
2022/04/18 12:14:18;;;;;;;;;;;37.60;17.10;;;;;;5073452;28;20436;-67
2022/04/18 12:16:44;;;;;;;;;;;37.10;17.10;;;;;;5077131;28;20249;-69
2022/04/18 12:19:11;;;;;;;;;;;36.70;17.30;;;;;;5095646;28;19954;-69
2022/04/18 12:21:37;;;;;;;;;;;36.20;17.90;;;;;;5098806;28;19908;-68
2022/04/18 12:24:03;;;;;;;;;;;36.20;18.10;;;;;;5080533;28;19915;-66
2022/04/18 12:26:30;;;;;;;;;;;36.10;17.60;;;;;;5090166;28;20288;-69
2022/04/18 12:29:06;;;;;;;;;;;35.90;17.30;;;;;;5089469;28;19919;-68
2022/04/18 12:31:31;;;;;;;;;;;35.60;17.10;;;;;;5095258;28;19912;-67
2022/04/18 12:33:57;;;;;;;;;;;35.40;17.50;;;;;;5091934;28;19957;-71
2022/04/18 12:36:27;;;;;;;;;;;35.40;17.40;;;;;;5077159;28;20296;-67
2022/04/18 12:38:53;;;;;;;;;;;35.40;18.50;;;;;;5078348;28;19908;-70
2022/04/18 12:41:32;;;;;;;;;;;35.50;16.70;;;;;;5100613;28;20007;-70
2022/04/18 12:43:58;;;;;;;;;;;35.40;17.10;;;;;;5089720;28;19911;-69
2022/04/18 12:46:31;;;;;;;;;;;35.40;16.60;;;;;;5076364;28;19928;-71
2022/04/18 12:48:56;;;;;;;;;;;35.50;17.10;;;;;;5090912;28;20019;-70
2022/04/18 12:51:29;;;;;;;;;;;35.80;18.20;;;;;;5103682;28;20318;-68
2022/04/18 12:53:55;;;;;;;;;;;35.80;15.60;;;;;;5070985;28;19924;-68
2022/04/18 12:56:23;;;;;;;4.10;2.30;;;35.50;15.00;;;;;;5068053;28;20445;-68
2022/04/18 12:59:01;;;;;;;3.30;2.40;;;35.00;15.10;;;;;;5088581;28;20823;-68
2022/04/18 13:01:32;;;;;;;3.95;2.75;;;34.60;15.80;;;;;;5086455;28;20406;-67
2022/04/18 13:03:59;;;;;;;3.58;2.90;;;34.20;18.00;;;;;;5086293;28;20411;-66
2022/04/18 13:06:30;;;;;;;3.90;2.20;;;33.90;17.70;;;;;;5070241;28;20428;-68
2022/04/18 13:08:58;;;;;;;4.22;3.08;;;33.60;18.80;;;;;;5100206;27;21060;-67
2022/04/18 13:11:34;;;;;;;3.63;2.70;;;33.40;18.70;;;;;;5080483;28;20413;-67
2022/04/18 13:14:04;;;;;;;4.00;2.90;;;33.20;18.50;;;;;;5075571;28;20784;-69
2022/04/18 13:16:30;;;;;;;5.70;2.50;;;32.90;18.30;;;;;;5071283;28;20422;-69
2022/04/18 13:19:10;;;;;;;5.28;2.80;;;32.60;18.70;;;;;;5089474;28;20451;-68
2022/04/18 13:21:36;;;;;;;4.57;2.50;;;32.40;18.50;;;;;;5089264;28;20810;-72
2022/04/18 13:24:03;;;;;;;4.40;2.45;;;32.20;18.40;;;;;;5092356;28;20456;-67
2022/04/18 13:26:30;;;;;;;5.68;2.50;;;31.80;18.60;;;;;;5085250;28;20423;-69
2022/04/18 13:28:57;;;;;;;3.50;2.40;;;31.50;19.80;;;;;;5091275;28;20394;-68
2022/04/18 13:31:24;;;;;;;4.18;2.40;;;31.30;19.20;;;;;;5089442;28;20902;-68
2022/04/18 13:33:50;;;;;;;4.38;2.80;;;31.10;21.00;;;;;;5092465;28;20170;-71
2022/04/18 13:36:33;;;;;;;6.68;3.08;;;30.90;20.70;;;;;;5076478;28;20208;-71
2022/04/18 13:39:05;;;;;;;6.43;3.30;;;30.50;20.90;;;;;;5098167;28;20439;-68
2022/04/18 13:41:31;;;;;;;4.00;3.00;;;30.60;20.10;;;;;;5083305;28;20422;-68
2022/04/18 13:43:57;;;;;;;4.38;2.97;;;30.40;20.00;;;;;;5095885;28;20421;-68